sensor_id;sensor_type;location;lat;lon;timestamp;temperature;humidity
7684;DHT22;3884;48.616;12.872;2022-09-01T00:00:39;16.00;99.90
7684;DHT22;3884;48.616;12.872;2022-09-01T00:03:07;15.90;99.90
7684;DHT22;3884;48.616;12.872;2022-09-01T00:05:35;15.90;99.90
7684;DHT22;3884;48.616;12.872;2022-09-01T00:08:03;15.80;99.90
7684;DHT22;3884;48.616;12.872;2022-09-01T00:10:30;15.90;99.90
7684;DHT22;3884;48.616;12.872;2022-09-01T00:12:57;15.80;99.90
7684;DHT22;3884;48.616;12.872;2022-09-01T00:15:26;15.80;99.90
7684;DHT22;3884;48.616;12.872;2022-09-01T00:17:53;15.80;99.90
7684;DHT22;3884;48.616;12.872;2022-09-01T00:20:20;15.80;99.90
7684;DHT22;3884;48.616;12.872;2022-09-01T00:22:47;15.80;99.90
7684;DHT22;3884;48.616;12.872;2022-09-01T00:25:14;15.80;99.90
7684;DHT22;3884;48.616;12.872;2022-09-01T00:27:43;15.80;99.90
7684;DHT22;3884;48.616;12.872;2022-09-01T00:30:10;15.80;99.90
7684;DHT22;3884;48.616;12.872;2022-09-01T00:32:40;15.80;99.90
7684;DHT22;3884;48.616;12.872;2022-09-01T00:35:11;15.80;99.90
7684;DHT22;3884;48.616;12.872;2022-09-01T00:37:38;15.80;99.90
7684;DHT22;3884;48.616;12.872;2022-09-01T00:40:07;15.80;99.90
7684;DHT22;3884;48.616;12.872;2022-09-01T00:42:35;15.80;99.90
7684;DHT22;3884;48.616;12.872;2022-09-01T00:45:02;15.70;99.90
7684;DHT22;3884;48.616;12.872;2022-09-01T00:47:30;15.70;99.90
7684;DHT22;3884;48.616;12.872;2022-09-01T00:49:58;15.80;99.90
7684;DHT22;3884;48.616;12.872;2022-09-01T00:52:30;15.70;99.90
7684;DHT22;3884;48.616;12.872;2022-09-01T00:55:07;15.70;99.90
7684;DHT22;3884;48.616;12.872;2022-09-01T00:57:35;15.70;99.90
7684;DHT22;3884;48.616;12.872;2022-09-01T01:00:08;15.70;99.90
7684;DHT22;3884;48.616;12.872;2022-09-01T01:02:36;15.70;99.90
7684;DHT22;3884;48.616;12.872;2022-09-01T01:05:05;15.60;99.90
7684;DHT22;3884;48.616;12.872;2022-09-01T01:07:33;15.60;99.90
7684;DHT22;3884;48.616;12.872;2022-09-01T01:10:05;15.60;99.90
7684;DHT22;3884;48.616;12.872;2022-09-01T01:12:32;15.60;99.90
7684;DHT22;3884;48.616;12.872;2022-09-01T01:15:03;15.60;99.90
7684;DHT22;3884;48.616;12.872;2022-09-01T01:17:31;15.70;99.90
7684;DHT22;3884;48.616;12.872;2022-09-01T01:19:58;15.60;99.90
7684;DHT22;3884;48.616;12.872;2022-09-01T01:22:53;15.60;99.90
7684;DHT22;3884;48.616;12.872;2022-09-01T01:25:30;15.60;99.90
7684;DHT22;3884;48.616;12.872;2022-09-01T01:28:08;15.60;99.90
7684;DHT22;3884;48.616;12.872;2022-09-01T01:30:37;15.60;99.90
7684;DHT22;3884;48.616;12.872;2022-09-01T01:33:05;15.50;99.90
7684;DHT22;3884;48.616;12.872;2022-09-01T01:35:32;15.60;99.90
7684;DHT22;3884;48.616;12.872;2022-09-01T01:38:02;15.60;99.90
7684;DHT22;3884;48.616;12.872;2022-09-01T01:40:35;15.50;99.90
7684;DHT22;3884;48.616;12.872;2022-09-01T01:43:03;15.50;99.90
7684;DHT22;3884;48.616;12.872;2022-09-01T01:45:30;15.30;99.90
7684;DHT22;3884;48.616;12.872;2022-09-01T01:47:57;15.30;99.90
7684;DHT22;3884;48.616;12.872;2022-09-01T01:50:27;15.20;99.90
7684;DHT22;3884;48.616;12.872;2022-09-01T01:53:00;15.00;99.90
7684;DHT22;3884;48.616;12.872;2022-09-01T01:55:28;15.00;99.90
7684;DHT22;3884;48.616;12.872;2022-09-01T01:57:59;15.00;99.90
7684;DHT22;3884;48.616;12.872;2022-09-01T02:00:29;15.10;99.90
7684;DHT22;3884;48.616;12.872;2022-09-01T02:03:00;15.20;99.90
7684;DHT22;3884;48.616;12.872;2022-09-01T02:05:29;15.20;99.90
7684;DHT22;3884;48.616;12.872;2022-09-01T02:08:00;15.20;99.90
7684;DHT22;3884;48.616;12.872;2022-09-01T02:10:31;15.10;99.90
7684;DHT22;3884;48.616;12.872;2022-09-01T02:13:01;15.00;99.90
7684;DHT22;3884;48.616;12.872;2022-09-01T02:15:34;15.00;99.90
7684;DHT22;3884;48.616;12.872;2022-09-01T02:18:03;15.00;99.90
7684;DHT22;3884;48.616;12.872;2022-09-01T02:20:31;15.00;99.90
7684;DHT22;3884;48.616;12.872;2022-09-01T02:22:59;15.00;99.90
7684;DHT22;3884;48.616;12.872;2022-09-01T02:25:29;15.00;99.90
7684;DHT22;3884;48.616;12.872;2022-09-01T02:27:56;15.00;99.90
7684;DHT22;3884;48.616;12.872;2022-09-01T02:30:26;14.90;99.90
7684;DHT22;3884;48.616;12.872;2022-09-01T02:32:54;14.80;99.90
7684;DHT22;3884;48.616;12.872;2022-09-01T02:35:23;14.80;99.90
7684;DHT22;3884;48.616;12.872;2022-09-01T02:37:59;14.80;99.90
7684;DHT22;3884;48.616;12.872;2022-09-01T02:40:27;14.70;99.90
7684;DHT22;3884;48.616;12.872;2022-09-01T02:42:55;14.60;99.90
7684;DHT22;3884;48.616;12.872;2022-09-01T02:45:25;14.70;99.90
7684;DHT22;3884;48.616;12.872;2022-09-01T02:47:54;14.70;99.90
7684;DHT22;3884;48.616;12.872;2022-09-01T02:50:22;14.80;99.90
7684;DHT22;3884;48.616;12.872;2022-09-01T02:52:50;14.80;99.90
7684;DHT22;3884;48.616;12.872;2022-09-01T02:55:19;14.90;99.90
7684;DHT22;3884;48.616;12.872;2022-09-01T02:57:49;14.90;99.90
7684;DHT22;3884;48.616;12.872;2022-09-01T03:00:17;14.90;99.90
7684;DHT22;3884;48.616;12.872;2022-09-01T03:02:56;15.00;99.90
7684;DHT22;3884;48.616;12.872;2022-09-01T03:05:25;15.00;99.90
7684;DHT22;3884;48.616;12.872;2022-09-01T03:07:55;15.00;99.90
7684;DHT22;3884;48.616;12.872;2022-09-01T03:10:24;14.90;99.90
7684;DHT22;3884;48.616;12.872;2022-09-01T03:13:00;14.90;99.90
7684;DHT22;3884;48.616;12.872;2022-09-01T03:15:27;14.80;99.90
7684;DHT22;3884;48.616;12.872;2022-09-01T03:17:56;14.70;99.90
7684;DHT22;3884;48.616;12.872;2022-09-01T03:20:24;14.80;99.90
7684;DHT22;3884;48.616;12.872;2022-09-01T03:22:51;14.90;99.90
7684;DHT22;3884;48.616;12.872;2022-09-01T03:25:20;14.90;99.90
7684;DHT22;3884;48.616;12.872;2022-09-01T03:27:50;14.90;99.90
7684;DHT22;3884;48.616;12.872;2022-09-01T03:30:18;14.80;99.90
7684;DHT22;3884;48.616;12.872;2022-09-01T03:32:45;14.90;99.90
7684;DHT22;3884;48.616;12.872;2022-09-01T03:35:14;14.80;99.90
7684;DHT22;3884;48.616;12.872;2022-09-01T03:37:42;14.90;99.90
7684;DHT22;3884;48.616;12.872;2022-09-01T03:40:11;14.90;99.90
7684;DHT22;3884;48.616;12.872;2022-09-01T03:42:40;15.00;99.90
7684;DHT22;3884;48.616;12.872;2022-09-01T03:45:09;14.90;99.90
7684;DHT22;3884;48.616;12.872;2022-09-01T03:47:41;14.90;99.90
7684;DHT22;3884;48.616;12.872;2022-09-01T03:50:10;14.90;99.90
7684;DHT22;3884;48.616;12.872;2022-09-01T03:52:46;14.80;99.90
7684;DHT22;3884;48.616;12.872;2022-09-01T03:55:14;14.80;99.90
7684;DHT22;3884;48.616;12.872;2022-09-01T03:57:49;14.80;99.90
7684;DHT22;3884;48.616;12.872;2022-09-01T04:00:16;14.80;99.90
7684;DHT22;3884;48.616;12.872;2022-09-01T04:02:46;14.80;99.90
7684;DHT22;3884;48.616;12.872;2022-09-01T04:05:16;14.90;99.90
7684;DHT22;3884;48.616;12.872;2022-09-01T04:07:47;14.80;99.90
7684;DHT22;3884;48.616;12.872;2022-09-01T04:10:15;14.80;99.90
7684;DHT22;3884;48.616;12.872;2022-09-01T04:12:42;14.80;99.90
7684;DHT22;3884;48.616;12.872;2022-09-01T04:15:12;14.90;99.90
7684;DHT22;3884;48.616;12.872;2022-09-01T04:17:40;14.90;99.90
7684;DHT22;3884;48.616;12.872;2022-09-01T04:20:24;14.90;99.90
7684;DHT22;3884;48.616;12.872;2022-09-01T04:22:52;14.80;99.90
7684;DHT22;3884;48.616;12.872;2022-09-01T04:25:20;14.70;99.90
7684;DHT22;3884;48.616;12.872;2022-09-01T04:27:50;14.70;99.90
7684;DHT22;3884;48.616;12.872;2022-09-01T04:30:21;14.80;99.90
7684;DHT22;3884;48.616;12.872;2022-09-01T04:32:52;14.80;99.90
7684;DHT22;3884;48.616;12.872;2022-09-01T04:35:22;14.90;99.90
7684;DHT22;3884;48.616;12.872;2022-09-01T04:37:59;14.90;99.90
7684;DHT22;3884;48.616;12.872;2022-09-01T04:40:27;14.80;99.90
7684;DHT22;3884;48.616;12.872;2022-09-01T04:42:54;14.80;99.90
7684;DHT22;3884;48.616;12.872;2022-09-01T04:45:21;14.80;99.90
7684;DHT22;3884;48.616;12.872;2022-09-01T04:47:52;14.90;99.90
7684;DHT22;3884;48.616;12.872;2022-09-01T04:50:20;14.80;99.90
7684;DHT22;3884;48.616;12.872;2022-09-01T04:53:07;14.70;99.90
7684;DHT22;3884;48.616;12.872;2022-09-01T04:55:40;14.80;99.90
7684;DHT22;3884;48.616;12.872;2022-09-01T04:58:09;14.80;99.90
7684;DHT22;3884;48.616;12.872;2022-09-01T05:00:38;14.80;99.90
7684;DHT22;3884;48.616;12.872;2022-09-01T05:03:06;14.90;99.90
7684;DHT22;3884;48.616;12.872;2022-09-01T05:05:55;14.90;99.90
7684;DHT22;3884;48.616;12.872;2022-09-01T05:08:27;14.90;99.90
7684;DHT22;3884;48.616;12.872;2022-09-01T05:10:57;15.00;99.90
7684;DHT22;3884;48.616;12.872;2022-09-01T05:13:36;15.00;99.90
7684;DHT22;3884;48.616;12.872;2022-09-01T05:16:06;15.00;99.90
7684;DHT22;3884;48.616;12.872;2022-09-01T05:18:38;15.00;99.90
7684;DHT22;3884;48.616;12.872;2022-09-01T05:21:08;15.00;99.90
7684;DHT22;3884;48.616;12.872;2022-09-01T05:23:37;14.90;99.90
7684;DHT22;3884;48.616;12.872;2022-09-01T05:26:12;14.80;99.90
7684;DHT22;3884;48.616;12.872;2022-09-01T05:28:43;14.80;99.90
7684;DHT22;3884;48.616;12.872;2022-09-01T05:31:10;14.70;99.90
7684;DHT22;3884;48.616;12.872;2022-09-01T05:33:38;14.70;99.90
7684;DHT22;3884;48.616;12.872;2022-09-01T05:36:12;14.70;99.90
7684;DHT22;3884;48.616;12.872;2022-09-01T05:38:41;14.70;99.90
7684;DHT22;3884;48.616;12.872;2022-09-01T05:41:12;14.70;99.90
7684;DHT22;3884;48.616;12.872;2022-09-01T05:43:41;14.60;99.90
7684;DHT22;3884;48.616;12.872;2022-09-01T05:46:13;14.60;99.90
7684;DHT22;3884;48.616;12.872;2022-09-01T05:48:42;14.50;99.90
7684;DHT22;3884;48.616;12.872;2022-09-01T05:51:10;14.50;99.90
7684;DHT22;3884;48.616;12.872;2022-09-01T05:53:41;14.50;99.90
7684;DHT22;3884;48.616;12.872;2022-09-01T05:56:09;14.60;99.90
7684;DHT22;3884;48.616;12.872;2022-09-01T05:58:40;14.60;99.90
7684;DHT22;3884;48.616;12.872;2022-09-01T06:01:15;14.70;99.90
7684;DHT22;3884;48.616;12.872;2022-09-01T06:03:48;14.80;99.90
7684;DHT22;3884;48.616;12.872;2022-09-01T06:06:23;14.90;99.90
7684;DHT22;3884;48.616;12.872;2022-09-01T06:08:53;14.90;99.90
7684;DHT22;3884;48.616;12.872;2022-09-01T06:11:25;15.00;99.90
7684;DHT22;3884;48.616;12.872;2022-09-01T06:13:58;15.00;99.90
7684;DHT22;3884;48.616;12.872;2022-09-01T06:16:25;14.90;99.90
7684;DHT22;3884;48.616;12.872;2022-09-01T06:18:55;14.90;99.90
7684;DHT22;3884;48.616;12.872;2022-09-01T06:21:23;14.90;99.90
7684;DHT22;3884;48.616;12.872;2022-09-01T06:23:51;14.90;99.90
7684;DHT22;3884;48.616;12.872;2022-09-01T06:26:22;15.00;99.90
7684;DHT22;3884;48.616;12.872;2022-09-01T06:28:52;15.20;99.90
7684;DHT22;3884;48.616;12.872;2022-09-01T06:31:19;15.30;99.90
7684;DHT22;3884;48.616;12.872;2022-09-01T06:33:49;15.30;99.90
7684;DHT22;3884;48.616;12.872;2022-09-01T06:36:19;15.40;99.90
7684;DHT22;3884;48.616;12.872;2022-09-01T06:38:49;15.50;99.90
7684;DHT22;3884;48.616;12.872;2022-09-01T06:41:18;15.60;99.90
7684;DHT22;3884;48.616;12.872;2022-09-01T06:43:46;15.50;99.90
7684;DHT22;3884;48.616;12.872;2022-09-01T06:46:14;15.50;99.90
7684;DHT22;3884;48.616;12.872;2022-09-01T06:48:42;15.60;99.90
7684;DHT22;3884;48.616;12.872;2022-09-01T06:51:13;15.70;99.90
7684;DHT22;3884;48.616;12.872;2022-09-01T06:53:41;15.70;99.90
7684;DHT22;3884;48.616;12.872;2022-09-01T06:56:10;15.70;99.90
7684;DHT22;3884;48.616;12.872;2022-09-01T06:58:42;15.60;99.90
7684;DHT22;3884;48.616;12.872;2022-09-01T07:01:12;15.90;99.90
7684;DHT22;3884;48.616;12.872;2022-09-01T07:03:40;16.00;99.90
7684;DHT22;3884;48.616;12.872;2022-09-01T07:06:24;16.20;99.90
7684;DHT22;3884;48.616;12.872;2022-09-01T07:09:23;16.40;99.90
7684;DHT22;3884;48.616;12.872;2022-09-01T07:12:09;16.60;99.90
7684;DHT22;3884;48.616;12.872;2022-09-01T07:14:38;16.70;99.90
7684;DHT22;3884;48.616;12.872;2022-09-01T07:17:06;16.80;99.90
7684;DHT22;3884;48.616;12.872;2022-09-01T07:19:33;17.00;99.90
7684;DHT22;3884;48.616;12.872;2022-09-01T07:22:04;17.20;99.90
7684;DHT22;3884;48.616;12.872;2022-09-01T07:24:32;17.20;99.90
7684;DHT22;3884;48.616;12.872;2022-09-01T07:27:17;16.80;99.90
7684;DHT22;3884;48.616;12.872;2022-09-01T07:29:48;16.90;99.90
7684;DHT22;3884;48.616;12.872;2022-09-01T07:32:21;17.00;99.90
7684;DHT22;3884;48.616;12.872;2022-09-01T07:34:48;17.20;99.90
7684;DHT22;3884;48.616;12.872;2022-09-01T07:37:16;17.40;99.90
7684;DHT22;3884;48.616;12.872;2022-09-01T07:39:48;17.00;99.90
7684;DHT22;3884;48.616;12.872;2022-09-01T07:42:44;16.70;99.90
7684;DHT22;3884;48.616;12.872;2022-09-01T07:45:32;16.80;99.90
7684;DHT22;3884;48.616;12.872;2022-09-01T07:48:05;17.10;99.90
7684;DHT22;3884;48.616;12.872;2022-09-01T07:50:42;17.50;99.90
7684;DHT22;3884;48.616;12.872;2022-09-01T07:53:12;17.80;99.90
7684;DHT22;3884;48.616;12.872;2022-09-01T07:55:43;18.00;99.90
7684;DHT22;3884;48.616;12.872;2022-09-01T07:58:12;17.90;99.90
7684;DHT22;3884;48.616;12.872;2022-09-01T08:00:44;17.90;99.90
7684;DHT22;3884;48.616;12.872;2022-09-01T08:03:14;17.90;99.90
7684;DHT22;3884;48.616;12.872;2022-09-01T08:05:42;18.20;99.90
7684;DHT22;3884;48.616;12.872;2022-09-01T08:08:09;18.40;99.90
7684;DHT22;3884;48.616;12.872;2022-09-01T08:10:37;18.50;99.90
7684;DHT22;3884;48.616;12.872;2022-09-01T08:13:05;18.70;99.90
7684;DHT22;3884;48.616;12.872;2022-09-01T08:15:33;18.90;99.90
7684;DHT22;3884;48.616;12.872;2022-09-01T08:18:01;19.30;99.90
7684;DHT22;3884;48.616;12.872;2022-09-01T08:20:30;19.70;99.90
7684;DHT22;3884;48.616;12.872;2022-09-01T08:23:18;20.10;1.00
7684;DHT22;3884;48.616;12.872;2022-09-01T08:25:48;19.70;1.00
7684;DHT22;3884;48.616;12.872;2022-09-01T08:28:15;19.80;1.00
7684;DHT22;3884;48.616;12.872;2022-09-01T08:30:44;19.50;99.90
7684;DHT22;3884;48.616;12.872;2022-09-01T08:33:16;19.10;1.00
7684;DHT22;3884;48.616;12.872;2022-09-01T08:35:47;18.80;99.90
7684;DHT22;3884;48.616;12.872;2022-09-01T08:38:15;18.60;1.00
7684;DHT22;3884;48.616;12.872;2022-09-01T08:40:48;18.60;75.20
7684;DHT22;3884;48.616;12.872;2022-09-01T08:43:24;18.50;1.00
7684;DHT22;3884;48.616;12.872;2022-09-01T08:45:57;18.50;1.00
7684;DHT22;3884;48.616;12.872;2022-09-01T08:48:35;18.40;99.90
7684;DHT22;3884;48.616;12.872;2022-09-01T08:51:09;18.40;99.90
7684;DHT22;3884;48.616;12.872;2022-09-01T08:53:58;18.40;95.80
7684;DHT22;3884;48.616;12.872;2022-09-01T08:56:27;18.60;1.00
7684;DHT22;3884;48.616;12.872;2022-09-01T08:58:55;18.80;99.90
7684;DHT22;3884;48.616;12.872;2022-09-01T09:01:46;19.00;1.00
7684;DHT22;3884;48.616;12.872;2022-09-01T09:04:28;19.10;1.00
7684;DHT22;3884;48.616;12.872;2022-09-01T09:07:06;18.90;99.90
7684;DHT22;3884;48.616;12.872;2022-09-01T09:09:41;18.70;1.00
7684;DHT22;3884;48.616;12.872;2022-09-01T09:12:26;19.10;1.00
7684;DHT22;3884;48.616;12.872;2022-09-01T09:15:03;19.70;99.90
7684;DHT22;3884;48.616;12.872;2022-09-01T09:17:35;19.90;1.00
7684;DHT22;3884;48.616;12.872;2022-09-01T09:20:06;20.20;99.90
7684;DHT22;3884;48.616;12.872;2022-09-01T09:22:33;20.20;67.50
7684;DHT22;3884;48.616;12.872;2022-09-01T09:25:05;20.20;99.90
7684;DHT22;3884;48.616;12.872;2022-09-01T09:27:36;20.20;99.90
7684;DHT22;3884;48.616;12.872;2022-09-01T09:30:06;20.30;99.90
7684;DHT22;3884;48.616;12.872;2022-09-01T09:32:47;20.10;99.90
7684;DHT22;3884;48.616;12.872;2022-09-01T09:35:27;20.10;99.90
7684;DHT22;3884;48.616;12.872;2022-09-01T09:38:14;19.90;99.90
7684;DHT22;3884;48.616;12.872;2022-09-01T09:40:58;19.40;99.90
7684;DHT22;3884;48.616;12.872;2022-09-01T09:43:27;19.60;99.90
7684;DHT22;3884;48.616;12.872;2022-09-01T09:46:20;19.40;99.90
7684;DHT22;3884;48.616;12.872;2022-09-01T09:48:49;19.00;99.90
7684;DHT22;3884;48.616;12.872;2022-09-01T09:51:33;19.30;99.90
7684;DHT22;3884;48.616;12.872;2022-09-01T09:54:10;19.90;1.00
7684;DHT22;3884;48.616;12.872;2022-09-01T09:56:39;20.40;99.90
7684;DHT22;3884;48.616;12.872;2022-09-01T09:59:21;20.60;99.90
7684;DHT22;3884;48.616;12.872;2022-09-01T10:01:48;20.80;99.90
7684;DHT22;3884;48.616;12.872;2022-09-01T10:04:32;20.50;99.90
7684;DHT22;3884;48.616;12.872;2022-09-01T10:07:01;19.90;99.90
7684;DHT22;3884;48.616;12.872;2022-09-01T10:09:48;19.70;99.90
7684;DHT22;3884;48.616;12.872;2022-09-01T10:12:15;19.90;99.90
7684;DHT22;3884;48.616;12.872;2022-09-01T10:14:47;20.20;99.90
7684;DHT22;3884;48.616;12.872;2022-09-01T10:17:20;20.20;99.90
7684;DHT22;3884;48.616;12.872;2022-09-01T10:19:52;20.10;62.70
7684;DHT22;3884;48.616;12.872;2022-09-01T10:22:22;20.40;65.80
7684;DHT22;3884;48.616;12.872;2022-09-01T10:24:50;20.40;2.20
7684;DHT22;3884;48.616;12.872;2022-09-01T10:27:20;20.00;1.00
7684;DHT22;3884;48.616;12.872;2022-09-01T10:29:51;19.50;73.30
7684;DHT22;3884;48.616;12.872;2022-09-01T10:32:23;19.30;99.90
7684;DHT22;3884;48.616;12.872;2022-09-01T10:34:52;19.70;1.00
7684;DHT22;3884;48.616;12.872;2022-09-01T10:37:22;19.90;1.00
7684;DHT22;3884;48.616;12.872;2022-09-01T10:42:54;20.40;1.00
7684;DHT22;3884;48.616;12.872;2022-09-01T10:45:40;20.50;1.00
7684;DHT22;3884;48.616;12.872;2022-09-01T10:48:29;20.40;99.90
7684;DHT22;3884;48.616;12.872;2022-09-01T10:54:00;20.70;1.00
7684;DHT22;3884;48.616;12.872;2022-09-01T10:56:37;20.60;1.00
7684;DHT22;3884;48.616;12.872;2022-09-01T10:59:07;20.40;1.00
7684;DHT22;3884;48.616;12.872;2022-09-01T11:05:09;20.10;1.00
7684;DHT22;3884;48.616;12.872;2022-09-01T11:07:36;20.10;1.00
7684;DHT22;3884;48.616;12.872;2022-09-01T11:10:35;19.60;1.00
7684;DHT22;3884;48.616;12.872;2022-09-01T11:13:35;19.50;1.00
7684;DHT22;3884;48.616;12.872;2022-09-01T11:16:28;19.50;1.00
7684;DHT22;3884;48.616;12.872;2022-09-01T11:19:15;19.50;1.00
7684;DHT22;3884;48.616;12.872;2022-09-01T11:21:44;19.70;1.00
7684;DHT22;3884;48.616;12.872;2022-09-01T11:30:16;19.40;66.70
7684;DHT22;3884;48.616;12.872;2022-09-01T11:32:44;19.40;99.90
7684;DHT22;3884;48.616;12.872;2022-09-01T11:35:16;19.40;99.90
7684;DHT22;3884;48.616;12.872;2022-09-01T11:37:47;19.50;61.20
7684;DHT22;3884;48.616;12.872;2022-09-01T11:40:19;19.70;1.00
7684;DHT22;3884;48.616;12.872;2022-09-01T11:42:48;20.10;34.20
7684;DHT22;3884;48.616;12.872;2022-09-01T11:45:21;20.40;1.00
7684;DHT22;3884;48.616;12.872;2022-09-01T11:47:53;20.60;1.00
7684;DHT22;3884;48.616;12.872;2022-09-01T11:50:22;20.80;1.00
7684;DHT22;3884;48.616;12.872;2022-09-01T11:52:53;20.90;99.90
7684;DHT22;3884;48.616;12.872;2022-09-01T11:55:28;21.00;1.00
7684;DHT22;3884;48.616;12.872;2022-09-01T11:57:57;20.90;1.00
7684;DHT22;3884;48.616;12.872;2022-09-01T12:00:27;20.70;1.00
7684;DHT22;3884;48.616;12.872;2022-09-01T12:02:55;20.80;1.00
7684;DHT22;3884;48.616;12.872;2022-09-01T12:05:25;20.80;1.00
7684;DHT22;3884;48.616;12.872;2022-09-01T12:07:53;20.90;1.00
7684;DHT22;3884;48.616;12.872;2022-09-01T12:10:26;20.80;1.00
7684;DHT22;3884;48.616;12.872;2022-09-01T12:13:02;20.50;1.00
7684;DHT22;3884;48.616;12.872;2022-09-01T12:15:29;20.30;1.00
7684;DHT22;3884;48.616;12.872;2022-09-01T12:18:10;20.30;1.00
7684;DHT22;3884;48.616;12.872;2022-09-01T12:20:37;20.30;1.00
7684;DHT22;3884;48.616;12.872;2022-09-01T12:23:17;20.20;1.00
7684;DHT22;3884;48.616;12.872;2022-09-01T12:25:44;19.90;1.00
7684;DHT22;3884;48.616;12.872;2022-09-01T12:28:13;19.70;1.00
7684;DHT22;3884;48.616;12.872;2022-09-01T12:30:40;19.80;1.00
7684;DHT22;3884;48.616;12.872;2022-09-01T12:33:11;19.80;1.00
7684;DHT22;3884;48.616;12.872;2022-09-01T12:35:39;19.90;59.20
7684;DHT22;3884;48.616;12.872;2022-09-01T12:38:23;20.00;1.00
7684;DHT22;3884;48.616;12.872;2022-09-01T12:40:51;20.00;58.10
7684;DHT22;3884;48.616;12.872;2022-09-01T12:43:33;20.00;1.00
7684;DHT22;3884;48.616;12.872;2022-09-01T12:46:00;20.10;3.20
7684;DHT22;3884;48.616;12.872;2022-09-01T12:48:30;20.10;1.00
7684;DHT22;3884;48.616;12.872;2022-09-01T12:50:59;20.00;1.00
7684;DHT22;3884;48.616;12.872;2022-09-01T12:53:29;20.20;1.00
7684;DHT22;3884;48.616;12.872;2022-09-01T12:56:04;20.20;1.00
7684;DHT22;3884;48.616;12.872;2022-09-01T12:58:32;20.40;1.00
7684;DHT22;3884;48.616;12.872;2022-09-01T13:01:02;20.80;1.00
7684;DHT22;3884;48.616;12.872;2022-09-01T13:03:30;21.20;1.00
7684;DHT22;3884;48.616;12.872;2022-09-01T13:05:59;21.30;1.00
7684;DHT22;3884;48.616;12.872;2022-09-01T13:08:28;20.90;99.90
7684;DHT22;3884;48.616;12.872;2022-09-01T13:10:57;20.60;1.00
7684;DHT22;3884;48.616;12.872;2022-09-01T13:13:27;20.60;1.00
7684;DHT22;3884;48.616;12.872;2022-09-01T13:15:57;20.70;1.00
7684;DHT22;3884;48.616;12.872;2022-09-01T13:18:26;20.40;1.00
7684;DHT22;3884;48.616;12.872;2022-09-01T13:20:55;20.20;1.00
7684;DHT22;3884;48.616;12.872;2022-09-01T13:23:22;20.20;1.00
7684;DHT22;3884;48.616;12.872;2022-09-01T13:25:49;20.00;1.00
7684;DHT22;3884;48.616;12.872;2022-09-01T13:28:17;20.20;1.00
7684;DHT22;3884;48.616;12.872;2022-09-01T13:30:48;20.10;1.00
7684;DHT22;3884;48.616;12.872;2022-09-01T13:33:18;20.00;1.00
7684;DHT22;3884;48.616;12.872;2022-09-01T13:35:46;20.20;1.00
7684;DHT22;3884;48.616;12.872;2022-09-01T13:38:12;20.10;1.00
7684;DHT22;3884;48.616;12.872;2022-09-01T13:40:41;20.20;1.00
7684;DHT22;3884;48.616;12.872;2022-09-01T13:43:10;20.20;1.00
7684;DHT22;3884;48.616;12.872;2022-09-01T13:45:36;20.20;1.00
7684;DHT22;3884;48.616;12.872;2022-09-01T13:48:05;20.20;1.00
7684;DHT22;3884;48.616;12.872;2022-09-01T13:50:34;20.20;1.00
7684;DHT22;3884;48.616;12.872;2022-09-01T13:53:01;20.40;1.00
7684;DHT22;3884;48.616;12.872;2022-09-01T13:55:31;20.40;1.00
7684;DHT22;3884;48.616;12.872;2022-09-01T13:57:58;20.50;1.00
7684;DHT22;3884;48.616;12.872;2022-09-01T14:00:27;20.40;99.90
7684;DHT22;3884;48.616;12.872;2022-09-01T14:02:56;20.40;99.90
7684;DHT22;3884;48.616;12.872;2022-09-01T14:05:26;20.50;1.00
7684;DHT22;3884;48.616;12.872;2022-09-01T14:07:58;20.50;1.00
7684;DHT22;3884;48.616;12.872;2022-09-01T14:10:27;20.50;1.00
7684;DHT22;3884;48.616;12.872;2022-09-01T14:12:54;20.50;1.00
7684;DHT22;3884;48.616;12.872;2022-09-01T14:15:21;20.60;1.00
7684;DHT22;3884;48.616;12.872;2022-09-01T14:17:53;20.90;1.00
7684;DHT22;3884;48.616;12.872;2022-09-01T14:20:23;21.10;1.00
7684;DHT22;3884;48.616;12.872;2022-09-01T14:22:50;21.10;1.00
7684;DHT22;3884;48.616;12.872;2022-09-01T14:25:19;21.20;99.90
7684;DHT22;3884;48.616;12.872;2022-09-01T14:27:47;21.50;99.90
7684;DHT22;3884;48.616;12.872;2022-09-01T14:30:16;21.90;99.90
7684;DHT22;3884;48.616;12.872;2022-09-01T14:32:44;22.30;99.90
7684;DHT22;3884;48.616;12.872;2022-09-01T14:35:12;22.60;99.90
7684;DHT22;3884;48.616;12.872;2022-09-01T14:37:39;23.00;99.90
7684;DHT22;3884;48.616;12.872;2022-09-01T14:40:08;23.00;99.90
7684;DHT22;3884;48.616;12.872;2022-09-01T14:42:37;23.10;99.90
7684;DHT22;3884;48.616;12.872;2022-09-01T14:45:05;22.60;99.90
7684;DHT22;3884;48.616;12.872;2022-09-01T14:47:33;22.10;99.90
7684;DHT22;3884;48.616;12.872;2022-09-01T14:50:01;21.70;99.90
7684;DHT22;3884;48.616;12.872;2022-09-01T14:52:28;21.60;99.90
7684;DHT22;3884;48.616;12.872;2022-09-01T14:54:55;21.20;99.90
7684;DHT22;3884;48.616;12.872;2022-09-01T14:57:22;21.30;99.90
7684;DHT22;3884;48.616;12.872;2022-09-01T14:59:51;21.10;99.90
7684;DHT22;3884;48.616;12.872;2022-09-01T15:02:17;21.00;99.90
7684;DHT22;3884;48.616;12.872;2022-09-01T15:04:44;20.90;99.90
7684;DHT22;3884;48.616;12.872;2022-09-01T15:07:11;20.60;99.90
7684;DHT22;3884;48.616;12.872;2022-09-01T15:09:39;20.60;99.90
7684;DHT22;3884;48.616;12.872;2022-09-01T15:12:07;20.70;99.90
7684;DHT22;3884;48.616;12.872;2022-09-01T15:14:38;20.50;99.90
7684;DHT22;3884;48.616;12.872;2022-09-01T15:17:07;20.60;99.90
7684;DHT22;3884;48.616;12.872;2022-09-01T15:19:34;20.70;99.90
7684;DHT22;3884;48.616;12.872;2022-09-01T15:22:01;20.70;99.90
7684;DHT22;3884;48.616;12.872;2022-09-01T15:24:28;20.80;1.00
7684;DHT22;3884;48.616;12.872;2022-09-01T15:26:55;20.90;99.90
7684;DHT22;3884;48.616;12.872;2022-09-01T15:29:23;21.00;99.90
7684;DHT22;3884;48.616;12.872;2022-09-01T15:31:50;21.20;99.90
7684;DHT22;3884;48.616;12.872;2022-09-01T15:34:18;21.70;99.90
7684;DHT22;3884;48.616;12.872;2022-09-01T15:36:45;22.20;99.90
7684;DHT22;3884;48.616;12.872;2022-09-01T15:39:12;22.30;99.90
7684;DHT22;3884;48.616;12.872;2022-09-01T15:41:39;21.80;99.90
7684;DHT22;3884;48.616;12.872;2022-09-01T15:44:09;20.90;99.90
7684;DHT22;3884;48.616;12.872;2022-09-01T15:46:36;20.40;99.90
7684;DHT22;3884;48.616;12.872;2022-09-01T15:49:06;20.20;99.90
7684;DHT22;3884;48.616;12.872;2022-09-01T15:51:36;19.70;99.90
7684;DHT22;3884;48.616;12.872;2022-09-01T15:54:05;19.70;99.90
7684;DHT22;3884;48.616;12.872;2022-09-01T15:56:32;19.50;99.90
7684;DHT22;3884;48.616;12.872;2022-09-01T15:58:59;19.20;99.90
7684;DHT22;3884;48.616;12.872;2022-09-01T16:01:30;19.00;99.90
7684;DHT22;3884;48.616;12.872;2022-09-01T16:03:57;19.00;1.00
7684;DHT22;3884;48.616;12.872;2022-09-01T16:06:25;19.00;1.00
7684;DHT22;3884;48.616;12.872;2022-09-01T16:08:54;19.00;1.00
7684;DHT22;3884;48.616;12.872;2022-09-01T16:11:21;18.90;1.00
7684;DHT22;3884;48.616;12.872;2022-09-01T16:13:50;18.80;1.00
7684;DHT22;3884;48.616;12.872;2022-09-01T16:16:44;18.70;1.00
7684;DHT22;3884;48.616;12.872;2022-09-01T16:19:23;18.60;1.00
7684;DHT22;3884;48.616;12.872;2022-09-01T16:22:00;18.70;1.00
7684;DHT22;3884;48.616;12.872;2022-09-01T16:24:32;18.70;1.00
7684;DHT22;3884;48.616;12.872;2022-09-01T16:27:06;18.60;1.00
7684;DHT22;3884;48.616;12.872;2022-09-01T16:29:41;18.60;1.00